Time;durP1;ratioP1;P1;durP2;ratioP2;P2;SDS_P1;SDS_P2;PMS_P1;PMS_P2;Temp;Humidity;BMP_temperature;BMP_pressure;BME280_temperature;BME280_humidity;BME280_pressure;Samples;Min_cycle;Max_cycle;Signal;HPM_P1;HPM_P2
2023/10/24 00:01:32;;;;;;;9.55;7.50;;;9.90;99.90;;;;;;4987992;28;20093;-87
2023/10/24 00:03:59;;;;;;;11.98;7.70;;;9.90;99.90;;;;;;4987449;28;20030;-87
2023/10/24 00:06:25;;;;;;;9.93;7.30;;;9.90;99.90;;;;;;4987159;28;20023;-88
2023/10/24 00:08:50;;;;;;;11.85;8.35;;;9.90;99.90;;;;;;4986894;28;20022;-87
2023/10/24 00:11:16;;;;;;;10.60;8.07;;;9.90;99.90;;;;;;4986569;28;20056;-87
2023/10/24 00:13:41;;;;;;;11.00;8.20;;;9.90;99.90;;;;;;4986796;28;20019;-87
2023/10/24 00:16:07;;;;;;;11.10;8.40;;;9.80;99.90;;;;;;4987182;28;20022;-87
2023/10/24 00:18:32;;;;;;;13.80;8.70;;;9.80;99.90;;;;;;4987897;28;20035;-87
2023/10/24 00:20:58;;;;;;;10.65;8.90;;;9.80;99.90;;;;;;4989493;28;20022;-87
2023/10/24 00:23:24;;;;;;;12.32;9.07;;;9.80;99.90;;;;;;4986269;28;20035;-87
2023/10/24 00:25:49;;;;;;;12.07;8.55;;;9.80;99.90;;;;;;4987403;28;20023;-87
2023/10/24 00:28:15;;;;;;;11.63;8.85;;;9.80;99.90;;;;;;4991511;28;20022;-87
2023/10/24 00:30:40;;;;;;;10.83;8.47;;;9.80;99.90;;;;;;4992934;28;20695;-87
2023/10/24 00:33:06;;;;;;;12.40;9.37;;;9.80;99.90;;;;;;4991938;28;20962;-87
2023/10/24 00:35:33;;;;;;;10.95;8.90;;;9.80;99.90;;;;;;4985759;28;20030;-87
2023/10/24 00:37:59;;;;;;;12.50;9.65;;;9.80;99.90;;;;;;4987596;28;20442;-87
2023/10/24 00:40:24;;;;;;;11.88;8.98;;;9.80;99.90;;;;;;4986453;28;20072;-87
2023/10/24 00:42:51;;;;;;;12.17;9.03;;;9.80;99.90;;;;;;4987618;28;20035;-87
2023/10/24 00:45:17;;;;;;;11.30;9.67;;;9.80;99.90;;;;;;4986386;28;20437;-88
2023/10/24 00:47:44;;;;;;;15.23;8.57;;;9.80;99.90;;;;;;4986692;28;20026;-87
2023/10/24 00:50:09;;;;;;;13.50;9.87;;;9.80;99.90;;;;;;4986662;28;20030;-86
2023/10/24 00:52:37;;;;;;;12.00;9.50;;;9.90;99.90;;;;;;4988135;28;20034;-87
2023/10/24 00:55:04;;;;;;;13.55;9.90;;;9.90;99.90;;;;;;4986548;28;20034;-87
2023/10/24 00:57:30;;;;;;;12.18;9.30;;;9.90;99.90;;;;;;4987372;28;20112;-87
2023/10/24 00:59:55;;;;;;;16.65;10.43;;;9.90;99.90;;;;;;4986740;28;21437;-87
2023/10/24 01:02:24;;;;;;;13.95;8.95;;;9.90;99.90;;;;;;4986096;28;20035;-87
2023/10/24 01:04:54;;;;;;;11.15;8.52;;;9.90;99.90;;;;;;4986894;28;20559;-88
2023/10/24 01:07:19;;;;;;;13.80;9.48;;;9.90;99.90;;;;;;4988280;28;20032;-87
2023/10/24 01:09:45;;;;;;;14.48;9.32;;;9.90;99.90;;;;;;4986975;28;20023;-88
2023/10/24 01:12:10;;;;;;;12.30;8.70;;;9.90;99.90;;;;;;4992244;28;20026;-87
2023/10/24 01:14:36;;;;;;;11.73;9.25;;;9.90;99.90;;;;;;4992253;28;20030;-87
2023/10/24 01:17:12;;;;;;;12.43;8.85;;;9.90;99.90;;;;;;4997569;28;20042;-87
2023/10/24 01:19:38;;;;;;;11.02;9.02;;;9.90;99.90;;;;;;5018001;28;20082;-89
2023/10/24 01:22:03;;;;;;;14.50;9.73;;;9.80;99.90;;;;;;5012932;28;20014;-88
2023/10/24 01:24:29;;;;;;;13.98;9.75;;;9.80;99.90;;;;;;5007068;28;20034;-87
2023/10/24 01:26:57;;;;;;;15.35;9.40;;;9.80;99.90;;;;;;4985396;28;20054;-87
2023/10/24 01:29:23;;;;;;;12.55;9.50;;;9.80;99.90;;;;;;4984813;28;21439;-87
2023/10/24 01:31:48;;;;;;;12.77;8.90;;;9.80;99.90;;;;;;4985856;28;20053;-87
2023/10/24 01:34:14;;;;;;;13.13;9.20;;;9.80;99.90;;;;;;4985058;28;20033;-87
2023/10/24 01:36:40;;;;;;;11.30;8.98;;;9.80;99.90;;;;;;4984953;28;20038;-87
2023/10/24 01:39:07;;;;;;;11.80;8.93;;;9.80;99.90;;;;;;4984393;28;20036;-87
2023/10/24 01:41:32;;;;;;;12.68;8.75;;;9.80;99.90;;;;;;4985981;28;20442;-87
2023/10/24 01:43:58;;;;;;;10.75;8.88;;;9.70;99.90;;;;;;4985531;28;20030;-87
2023/10/24 01:46:23;;;;;;;10.68;9.27;;;9.70;99.90;;;;;;4985066;28;20026;-88
2023/10/24 01:48:49;;;;;;;14.32;9.43;;;9.70;99.90;;;;;;4984721;28;20030;-87
2023/10/24 01:51:15;;;;;;;11.77;9.10;;;9.70;99.90;;;;;;4984166;28;20018;-87
2023/10/24 01:53:40;;;;;;;15.68;9.60;;;9.60;99.90;;;;;;4985304;28;20523;-88
2023/10/24 01:56:06;;;;;;;13.53;9.53;;;9.60;99.90;;;;;;4984803;28;20028;-87
2023/10/24 01:58:31;;;;;;;13.75;9.18;;;9.60;99.90;;;;;;4984836;28;20622;-87
2023/10/24 02:00:58;;;;;;;13.75;9.48;;;9.60;99.90;;;;;;4984825;28;20121;-87
2023/10/24 02:03:23;;;;;;;12.27;9.47;;;9.50;99.90;;;;;;4986028;28;20126;-87
2023/10/24 02:05:49;;;;;;;12.02;9.98;;;9.50;99.90;;;;;;4985533;28;20033;-87
2023/10/24 02:08:14;;;;;;;11.80;9.30;;;9.50;99.90;;;;;;4985703;28;20040;-87
2023/10/24 02:10:40;;;;;;;12.82;9.55;;;9.50;99.90;;;;;;4987870;28;20052;-87
2023/10/24 02:13:05;;;;;;;12.38;8.70;;;9.50;99.90;;;;;;4984581;28;20030;-88
2023/10/24 02:15:31;;;;;;;11.27;8.00;;;9.50;99.90;;;;;;4983741;28;20027;-87
2023/10/24 02:17:56;;;;;;;10.73;8.38;;;9.50;99.90;;;;;;4984827;28;20026;-87
2023/10/24 02:20:22;;;;;;;10.57;8.02;;;9.50;99.90;;;;;;4985252;28;20018;-87
2023/10/24 02:22:49;;;;;;;10.40;8.35;;;9.50;99.90;;;;;;4981146;28;20156;-87
2023/10/24 02:25:14;;;;;;;11.70;7.80;;;9.50;99.90;;;;;;4983160;28;20018;-87
2023/10/24 02:27:40;;;;;;;14.57;7.60;;;9.40;99.90;;;;;;4983913;28;20070;-87
2023/10/24 02:30:06;;;;;;;10.37;7.93;;;9.40;99.90;;;;;;4984893;28;20060;-87
2023/10/24 02:32:31;;;;;;;11.77;8.00;;;9.40;99.90;;;;;;4984695;28;20099;-87
2023/10/24 02:34:57;;;;;;;10.40;6.72;;;9.40;99.90;;;;;;4984335;28;20489;-88
2023/10/24 02:37:23;;;;;;;9.30;6.87;;;9.40;99.90;;;;;;4985013;28;20401;-87
2023/10/24 02:39:49;;;;;;;9.32;7.30;;;9.30;99.90;;;;;;4984546;28;20042;-88
2023/10/24 02:42:15;;;;;;;7.82;6.70;;;9.30;99.90;;;;;;4983722;28;20117;-87
2023/10/24 02:44:40;;;;;;;9.57;6.93;;;9.30;99.90;;;;;;4983519;28;21375;-87
2023/10/24 02:47:06;;;;;;;10.10;6.40;;;9.20;99.90;;;;;;4984717;28;20026;-87
2023/10/24 02:49:32;;;;;;;10.40;6.95;;;9.30;99.90;;;;;;4984425;28;20109;-87
2023/10/24 02:51:58;;;;;;;13.50;7.28;;;9.20;99.90;;;;;;4983871;28;20029;-87
2023/10/24 02:54:23;;;;;;;8.10;6.93;;;9.20;99.90;;;;;;4984167;28;20046;-88
2023/10/24 02:56:50;;;;;;;9.83;6.83;;;9.20;99.90;;;;;;4985293;28;20037;-87
2023/10/24 02:59:15;;;;;;;9.93;6.73;;;9.10;99.90;;;;;;4984522;28;20046;-87
2023/10/24 03:01:41;;;;;;;13.73;6.90;;;9.10;99.90;;;;;;4984914;28;20034;-87
2023/10/24 03:04:06;;;;;;;11.20;7.03;;;9.10;99.90;;;;;;4983801;28;20173;-87
2023/10/24 03:06:32;;;;;;;12.00;7.60;;;9.00;99.90;;;;;;4984645;28;20081;-87
2023/10/24 03:08:58;;;;;;;9.40;6.43;;;9.00;99.90;;;;;;4984825;28;20022;-87
2023/10/24 03:11:24;;;;;;;7.77;6.60;;;9.00;99.90;;;;;;4966437;28;20023;-87
2023/10/24 03:13:52;;;;;;;9.70;6.27;;;9.00;99.90;;;;;;4984053;28;20027;-87
2023/10/24 03:16:18;;;;;;;9.30;6.70;;;8.90;99.90;;;;;;4984358;28;20080;-87
2023/10/24 03:18:59;;;;;;;11.57;6.77;;;8.90;99.90;;;;;;4972150;28;20081;-87
2023/10/24 03:21:25;;;;;;;10.47;6.20;;;8.90;99.90;;;;;;4984512;28;20410;-87
2023/10/24 03:23:51;;;;;;;9.93;6.73;;;8.80;99.90;;;;;;4983318;28;20054;-86
2023/10/24 03:26:18;;;;;;;8.87;6.37;;;8.80;99.90;;;;;;4983019;28;20031;-86
2023/10/24 03:28:45;;;;;;;10.10;6.43;;;8.80;99.90;;;;;;4983232;28;20025;-87
2023/10/24 03:31:10;;;;;;;8.63;5.93;;;8.80;99.90;;;;;;4984218;28;20135;-87
2023/10/24 03:33:37;;;;;;;9.37;6.83;;;8.70;99.90;;;;;;4982082;28;20490;-87
2023/10/24 03:36:02;;;;;;;7.60;6.40;;;8.70;99.90;;;;;;4982480;28;21133;-87
2023/10/24 03:38:29;;;;;;;9.17;6.13;;;8.70;99.90;;;;;;4983288;28;20026;-87
2023/10/24 03:40:55;;;;;;;7.73;5.67;;;8.70;99.90;;;;;;4983456;28;20094;-87
2023/10/24 03:43:22;;;;;;;11.97;5.93;;;8.70;99.90;;;;;;4983692;28;20567;-87
2023/10/24 03:45:48;;;;;;;7.57;5.80;;;8.60;99.90;;;;;;4984100;28;20089;-87
2023/10/24 03:48:13;;;;;;;7.20;5.60;;;8.60;99.90;;;;;;4985307;28;20034;-87
2023/10/24 03:50:40;;;;;;;11.30;5.93;;;8.60;99.90;;;;;;4985462;28;20088;-86
2023/10/24 03:53:06;;;;;;;9.53;6.67;;;8.60;99.90;;;;;;4984877;28;20045;-87
2023/10/24 03:55:32;;;;;;;7.50;6.20;;;8.50;99.90;;;;;;4982329;28;20045;-87
2023/10/24 03:57:58;;;;;;;7.33;6.10;;;8.50;99.90;;;;;;4982231;28;20049;-86
2023/10/24 04:00:24;;;;;;;8.17;6.33;;;8.50;99.90;;;;;;4984526;28;20428;-86
2023/10/24 04:02:54;;;;;;;10.50;6.70;;;8.50;99.90;;;;;;4983539;28;20044;-87
2023/10/24 04:05:20;;;;;;;10.33;6.10;;;8.50;99.90;;;;;;4982476;28;20577;-87
2023/10/24 04:07:45;;;;;;;10.13;6.20;;;8.50;99.90;;;;;;4988085;28;20030;-87
2023/10/24 04:10:15;;;;;;;7.23;5.77;;;8.50;99.90;;;;;;4995712;28;20405;-86
2023/10/24 04:12:41;;;;;;;8.23;6.30;;;8.50;99.90;;;;;;4997988;28;20030;-86
2023/10/24 04:15:08;;;;;;;10.80;6.10;;;8.40;99.90;;;;;;5002052;28;20034;-86
2023/10/24 04:17:33;;;;;;;9.30;7.50;;;8.50;99.90;;;;;;5012381;28;21356;-88
2023/10/24 04:19:59;;;;;;;14.07;9.83;;;8.50;99.90;;;;;;5024479;28;20046;-87
2023/10/24 04:22:25;;;;;;;12.13;7.83;;;8.50;99.90;;;;;;5006959;28;20023;-87
2023/10/24 04:24:50;;;;;;;9.03;7.20;;;8.50;99.90;;;;;;4995390;28;20046;-87
2023/10/24 04:27:16;;;;;;;14.77;7.77;;;8.50;99.90;;;;;;4993265;28;20737;-87
2023/10/24 04:29:42;;;;;;;10.80;8.57;;;8.50;99.90;;;;;;4988712;28;20038;-87
2023/10/24 04:32:07;;;;;;;9.67;6.83;;;8.50;99.90;;;;;;4989018;28;20030;-86
2023/10/24 04:34:34;;;;;;;10.27;7.07;;;8.60;99.90;;;;;;4986263;28;20029;-87
2023/10/24 04:37:01;;;;;;;10.80;6.87;;;8.60;99.90;;;;;;4984083;28;20026;-86
2023/10/24 04:39:27;;;;;;;9.27;6.77;;;8.60;99.90;;;;;;4985133;28;20026;-87
2023/10/24 04:41:53;;;;;;;9.03;6.30;;;8.60;99.90;;;;;;4985575;28;20057;-87
2023/10/24 04:44:19;;;;;;;9.37;6.10;;;8.60;99.90;;;;;;4984524;28;20044;-87
2023/10/24 04:46:45;;;;;;;9.33;5.97;;;8.50;99.90;;;;;;4983889;28;20022;-88
2023/10/24 04:49:11;;;;;;;8.63;6.00;;;8.50;99.90;;;;;;4979701;28;20045;-87
2023/10/24 04:51:36;;;;;;;10.10;5.70;;;8.50;99.90;;;;;;4981917;28;20105;-88
2023/10/24 04:54:02;;;;;;;6.70;5.50;;;8.50;99.90;;;;;;4984903;28;20030;-87
2023/10/24 04:56:28;;;;;;;10.30;5.80;;;8.50;99.90;;;;;;4985073;28;20037;-88
2023/10/24 04:58:55;;;;;;;7.83;5.70;;;8.50;99.90;;;;;;4983226;28;20038;-88
2023/10/24 05:01:20;;;;;;;13.20;5.83;;;8.50;99.90;;;;;;4983950;28;20109;-88
2023/10/24 05:03:47;;;;;;;10.23;6.87;;;8.50;99.90;;;;;;4984078;28;20026;-88
2023/10/24 05:06:13;;;;;;;8.07;5.90;;;8.50;99.90;;;;;;4984025;28;20118;-88
2023/10/24 05:08:39;;;;;;;10.97;6.37;;;8.40;99.90;;;;;;4984937;28;20018;-87
2023/10/24 05:11:04;;;;;;;8.53;5.97;;;8.40;99.90;;;;;;4984576;28;20057;-87
2023/10/24 05:13:30;;;;;;;10.93;6.30;;;8.40;99.90;;;;;;4983864;28;20058;-87
2023/10/24 05:15:56;;;;;;;9.00;6.53;;;8.40;99.90;;;;;;4977448;28;20026;-88
2023/10/24 05:18:21;;;;;;;9.00;6.60;;;8.40;99.90;;;;;;4978068;28;20779;-88
2023/10/24 05:20:47;;;;;;;9.03;6.70;;;8.30;99.90;;;;;;4976752;28;20509;-87
2023/10/24 05:23:12;;;;;;;9.20;5.90;;;8.30;99.90;;;;;;4979010;28;20038;-87
2023/10/24 05:25:38;;;;;;;8.43;6.00;;;8.40;99.90;;;;;;4978126;28;20031;-87
2023/10/24 05:28:04;;;;;;;8.07;6.43;;;8.40;99.90;;;;;;4978005;28;21285;-88
2023/10/24 05:30:29;;;;;;;8.53;6.40;;;8.40;99.90;;;;;;4979426;28;20673;-87
2023/10/24 05:32:58;;;;;;;12.40;6.67;;;8.40;99.90;;;;;;4978692;28;20085;-87
2023/10/24 05:35:23;;;;;;;8.40;6.70;;;8.40;99.90;;;;;;4977875;28;20068;-87
2023/10/24 05:37:49;;;;;;;21.43;11.57;;;8.40;99.90;;;;;;4975105;28;21371;-87
2023/10/24 05:40:14;;;;;;;12.20;7.43;;;8.50;99.90;;;;;;4979099;28;20052;-88
2023/10/24 05:42:41;;;;;;;10.80;7.73;;;8.50;99.90;;;;;;4978111;28;20046;-87
2023/10/24 05:45:09;;;;;;;11.73;8.90;;;8.50;99.90;;;;;;4976819;28;20031;-88
2023/10/24 05:47:34;;;;;;;10.30;8.30;;;8.50;99.90;;;;;;4976326;28;20169;-87
2023/10/24 05:50:00;;;;;;;11.07;7.57;;;8.50;99.90;;;;;;4977880;28;20042;-87
2023/10/24 05:52:25;;;;;;;11.60;7.90;;;8.60;99.90;;;;;;4978780;28;20073;-88
2023/10/24 05:54:52;;;;;;;11.37;7.43;;;8.60;99.90;;;;;;4978162;28;20210;-88
2023/10/24 05:57:18;;;;;;;10.33;7.80;;;8.60;99.90;;;;;;4976080;28;21386;-87
2023/10/24 05:59:44;;;;;;;11.93;8.00;;;8.70;99.90;;;;;;4977592;28;20110;-88
2023/10/24 06:02:10;;;;;;;10.07;8.00;;;8.70;99.90;;;;;;4977745;28;21367;-87
2023/10/24 06:04:36;;;;;;;13.03;10.97;;;8.70;99.90;;;;;;4978241;28;20033;-88
2023/10/24 06:07:02;;;;;;;16.10;8.73;;;8.80;99.90;;;;;;4979006;28;20038;-88
2023/10/24 06:09:28;;;;;;;11.17;8.00;;;8.80;99.90;;;;;;4978208;28;20038;-88
2023/10/24 06:11:54;;;;;;;12.07;8.93;;;8.80;99.90;;;;;;4976701;28;20452;-88
2023/10/24 06:14:19;;;;;;;10.80;8.00;;;8.90;99.90;;;;;;4976707;28;20030;-87
2023/10/24 06:16:45;;;;;;;10.57;7.47;;;8.90;99.90;;;;;;4978185;28;20124;-87
2023/10/24 06:19:10;;;;;;;12.17;8.37;;;8.90;99.90;;;;;;4976994;28;20034;-89
2023/10/24 06:21:36;;;;;;;11.67;8.00;;;8.90;99.90;;;;;;4983429;28;20034;-87
2023/10/24 06:24:02;;;;;;;15.63;8.63;;;8.90;99.90;;;;;;4983450;28;20491;-87
2023/10/24 06:26:28;;;;;;;11.23;9.23;;;8.90;99.90;;;;;;4982599;28;20081;-87
2023/10/24 06:28:54;;;;;;;18.03;13.20;;;8.90;99.90;;;;;;4985672;28;20248;-87
2023/10/24 06:31:20;;;;;;;26.43;16.67;;;9.00;99.90;;;;;;4984287;28;20037;-87
2023/10/24 06:33:45;;;;;;;14.20;10.30;;;9.00;99.90;;;;;;4986066;28;20030;-87
2023/10/24 06:36:23;;;;;;;11.70;8.80;;;9.00;99.90;;;;;;4986709;28;20029;-87
2023/10/24 06:38:49;;;;;;;11.87;9.03;;;9.00;99.90;;;;;;4994935;28;20034;-87
2023/10/24 06:41:16;;;;;;;14.47;10.17;;;9.10;99.90;;;;;;4982696;28;20034;-89
2023/10/24 06:43:41;;;;;;;22.33;17.27;;;9.10;99.90;;;;;;4998924;28;20121;-86
2023/10/24 06:46:07;;;;;;;22.80;14.90;;;9.10;99.90;;;;;;4982409;28;20068;-88
2023/10/24 06:48:34;;;;;;;47.33;27.67;;;9.10;99.90;;;;;;4988306;28;20019;-87
2023/10/24 06:51:00;;;;;;;23.33;15.50;;;9.20;99.90;;;;;;4984881;28;20027;-86
2023/10/24 06:53:25;;;;;;;80.13;60.87;;;9.20;99.90;;;;;;4968672;28;20037;-87
2023/10/24 06:55:51;;;;;;;24.70;17.13;;;9.30;99.90;;;;;;4982102;28;20046;-87
2023/10/24 06:58:16;;;;;;;20.90;13.13;;;9.30;99.90;;;;;;4985737;28;20093;-87
2023/10/24 07:00:45;;;;;;;21.53;12.93;;;9.30;99.90;;;;;;4987081;28;20030;-87
2023/10/24 07:03:11;;;;;;;18.53;12.60;;;9.40;99.90;;;;;;4989706;28;20074;-88
2023/10/24 07:05:36;;;;;;;22.40;12.60;;;9.50;99.90;;;;;;4992567;28;20101;-88
2023/10/24 07:08:03;;;;;;;65.53;42.87;;;9.50;99.90;;;;;;4995182;28;20030;-88
2023/10/24 07:10:30;;;;;;;33.10;21.77;;;9.50;99.90;;;;;;5007219;28;20034;-88
2023/10/24 07:12:58;;;;;;;21.03;11.50;;;9.60;99.90;;;;;;5022323;28;20037;-88
2023/10/24 07:15:25;;;;;;;20.97;10.53;;;9.60;99.90;;;;;;5000369;28;20038;-88
2023/10/24 07:17:50;;;;;;;14.27;10.13;;;9.60;99.90;;;;;;4985984;28;20066;-88
2023/10/24 07:20:16;;;;;;;13.23;9.83;;;9.60;99.90;;;;;;4983194;28;20799;-85
2023/10/24 07:22:41;;;;;;;13.47;10.00;;;9.60;99.90;;;;;;4981398;28;20035;-88
2023/10/24 07:25:07;;;;;;;14.73;10.20;;;9.60;99.90;;;;;;4979298;28;20030;-88
2023/10/24 07:27:33;;;;;;;11.53;10.13;;;9.60;99.90;;;;;;4981871;28;20362;-88
2023/10/24 07:29:59;;;;;;;13.67;10.07;;;9.60;99.90;;;;;;4980456;28;20521;-88
2023/10/24 07:32:24;;;;;;;13.13;10.60;;;9.60;99.90;;;;;;4981901;28;20033;-88
2023/10/24 07:34:54;;;;;;;14.40;11.47;;;9.70;99.90;;;;;;4982236;28;20057;-88
2023/10/24 07:37:20;;;;;;;14.40;11.23;;;9.70;99.90;;;;;;4983855;28;20833;-88
2023/10/24 07:39:45;;;;;;;14.07;10.63;;;9.80;99.90;;;;;;4983409;28;20037;-88
2023/10/24 07:42:11;;;;;;;13.93;11.30;;;9.80;99.90;;;;;;4982909;28;20116;-88
2023/10/24 07:44:37;;;;;;;13.53;11.10;;;9.90;99.90;;;;;;4983530;28;20392;-88
2023/10/24 07:47:03;;;;;;;13.53;11.23;;;9.90;99.90;;;;;;4986021;28;20103;-88
2023/10/24 07:49:30;;;;;;;13.50;10.87;;;9.90;99.90;;;;;;4986354;28;20037;-88
2023/10/24 07:51:55;;;;;;;13.70;11.13;;;10.00;99.90;;;;;;4985731;28;20751;-88
2023/10/24 07:54:21;;;;;;;15.43;11.52;;;10.00;99.90;;;;;;4986742;28;20036;-88
2023/10/24 07:56:46;;;;;;;12.50;11.07;;;10.00;99.90;;;;;;4986554;28;20034;-88
2023/10/24 07:59:12;;;;;;;15.80;11.63;;;10.10;99.90;;;;;;4967421;28;20023;-88
2023/10/24 08:01:37;;;;;;;20.47;12.17;;;10.10;99.90;;;;;;4985802;28;20046;-88
2023/10/24 08:04:03;;;;;;;16.40;12.63;;;10.20;99.90;;;;;;4986266;28;20032;-88
2023/10/24 08:06:29;;;;;;;13.70;11.97;;;10.20;99.90;;;;;;4983026;28;20031;-88
2023/10/24 08:08:54;;;;;;;15.10;11.70;;;10.30;99.90;;;;;;4984950;28;20100;-88
2023/10/24 08:11:20;;;;;;;15.20;11.13;;;10.30;99.90;;;;;;4986868;28;21412;-89
2023/10/24 08:13:46;;;;;;;16.80;12.20;;;10.30;99.90;;;;;;4984871;28;21438;-89
2023/10/24 08:16:11;;;;;;;16.93;12.43;;;10.40;99.90;;;;;;4984338;28;20034;-88
2023/10/24 08:18:40;;;;;;;14.40;12.00;;;10.40;99.90;;;;;;4984830;28;20180;-88
2023/10/24 08:21:07;;;;;;;16.40;12.65;;;10.40;99.90;;;;;;4992499;28;20026;-89
2023/10/24 08:23:32;;;;;;;15.05;13.07;;;10.40;99.90;;;;;;4991045;28;20042;-88
2023/10/24 08:25:58;;;;;;;18.85;13.00;;;10.40;99.90;;;;;;4987829;28;20027;-88
2023/10/24 08:28:23;;;;;;;14.45;12.02;;;10.50;99.90;;;;;;4986709;28;20109;-88
2023/10/24 08:30:49;;;;;;;14.82;12.68;;;10.50;99.90;;;;;;4985347;28;20030;-89
2023/10/24 08:33:16;;;;;;;16.52;12.40;;;10.50;99.90;;;;;;4983959;28;20106;-88
2023/10/24 08:35:44;;;;;;;16.13;12.30;;;10.60;99.90;;;;;;4985449;28;20026;-88
2023/10/24 08:38:09;;;;;;;15.85;12.57;;;10.60;99.90;;;;;;4984689;28;20720;-88
2023/10/24 08:40:35;;;;;;;25.00;17.75;;;10.60;99.90;;;;;;4986558;28;20041;-88
2023/10/24 08:43:01;;;;;;;22.60;14.68;;;10.60;99.90;;;;;;4985890;28;20041;-88
2023/10/24 08:45:27;;;;;;;14.45;12.65;;;10.60;99.90;;;;;;4986102;28;20039;-88
2023/10/24 08:47:53;;;;;;;17.77;13.20;;;10.60;99.90;;;;;;4986798;28;20022;-89
2023/10/24 08:50:19;;;;;;;15.13;13.52;;;10.70;99.90;;;;;;4985353;28;20039;-88
2023/10/24 08:52:45;;;;;;;15.02;12.77;;;10.70;99.90;;;;;;4985632;28;20029;-88
2023/10/24 08:55:11;;;;;;;15.60;13.43;;;10.60;99.90;;;;;;4983050;28;20054;-89
2023/10/24 08:57:41;;;;;;;17.27;13.63;;;10.70;99.90;;;;;;4982943;28;20023;-88
2023/10/24 09:00:14;;;;;;;15.90;13.60;;;10.70;99.90;;;;;;4985078;28;20030;-88
2023/10/24 09:02:44;;;;;;;17.60;13.80;;;10.60;99.90;;;;;;4984370;28;20050;-88
2023/10/24 09:05:11;;;;;;;16.50;13.55;;;10.60;99.90;;;;;;4982907;28;20468;-87
2023/10/24 09:07:37;;;;;;;15.85;13.95;;;10.70;99.90;;;;;;4985592;28;20023;-88
2023/10/24 09:10:03;;;;;;;18.27;14.77;;;10.70;99.90;;;;;;4984815;28;20053;-87
2023/10/24 09:12:30;;;;;;;19.25;15.35;;;10.70;99.90;;;;;;4984061;28;20022;-87
2023/10/24 09:14:56;;;;;;;16.60;14.50;;;10.70;99.90;;;;;;4983602;28;20129;-87
2023/10/24 09:17:23;;;;;;;16.58;14.05;;;10.80;99.90;;;;;;4985010;28;20045;-87
2023/10/24 09:19:49;;;;;;;16.80;14.18;;;10.80;99.90;;;;;;4983320;28;20035;-88
2023/10/24 09:22:16;;;;;;;21.33;14.13;;;10.80;99.90;;;;;;4984604;28;20031;-87
2023/10/24 09:24:49;;;;;;;26.00;16.85;;;10.80;99.90;;;;;;4984223;28;20030;-87
2023/10/24 09:27:16;;;;;;;20.20;16.20;;;10.80;99.90;;;;;;4983510;28;20027;-88
2023/10/24 09:29:42;;;;;;;18.83;13.75;;;10.80;99.90;;;;;;4983304;28;20030;-87
2023/10/24 09:32:16;;;;;;;18.40;16.33;;;10.80;99.90;;;;;;4984036;28;20382;-88
2023/10/24 09:34:43;;;;;;;18.23;14.70;;;10.80;99.90;;;;;;4982986;28;20058;-88
2023/10/24 09:37:10;;;;;;;18.75;14.57;;;10.80;99.90;;;;;;4982118;28;20033;-88
2023/10/24 09:39:57;;;;;;;19.08;14.13;;;10.90;99.90;;;;;;4983404;28;20036;-87
2023/10/24 09:42:31;;;;;;;20.27;14.18;;;10.90;99.90;;;;;;4985637;28;20118;-87
2023/10/24 09:44:58;;;;;;;19.38;13.70;;;10.90;99.90;;;;;;4984158;28;20022;-87
2023/10/24 09:47:24;;;;;;;18.42;13.82;;;10.90;99.90;;;;;;4984617;28;20037;-87
2023/10/24 09:49:54;;;;;;;17.67;13.80;;;10.90;99.90;;;;;;4985817;28;21475;-87
2023/10/24 09:52:24;;;;;;;20.20;14.40;;;10.90;99.90;;;;;;4986069;28;20497;-86
2023/10/24 09:54:50;;;;;;;16.45;14.05;;;10.90;99.90;;;;;;4984866;28;20034;-87
2023/10/24 09:57:18;;;;;;;18.73;15.18;;;11.00;99.90;;;;;;4985411;28;20037;-87
2023/10/24 09:59:46;;;;;;;20.45;14.68;;;11.00;99.90;;;;;;4989932;28;20037;-87
2023/10/24 10:02:14;;;;;;;19.55;14.77;;;11.00;99.90;;;;;;4970824;28;20073;-87
2023/10/24 10:04:40;;;;;;;19.10;14.65;;;11.00;99.90;;;;;;4989989;28;20540;-86
2023/10/24 10:07:09;;;;;;;19.63;13.90;;;11.00;99.90;;;;;;5000806;28;20018;-86
2023/10/24 10:09:39;;;;;;;23.35;14.32;;;11.00;99.90;;;;;;5017852;28;20021;-86
2023/10/24 10:12:07;;;;;;;18.60;15.05;;;11.10;99.90;;;;;;5025800;28;20015;-86
2023/10/24 10:15:12;;;;;;;18.88;14.88;;;11.00;99.90;;;;;;4992655;28;20631;-86
2023/10/24 10:18:05;;;;;;;18.83;14.45;;;11.00;99.90;;;;;;4987010;28;20038;-85
2023/10/24 10:20:58;;;;;;;16.95;14.90;;;11.10;99.90;;;;;;4984038;28;20125;-86
2023/10/24 10:23:48;;;;;;;21.67;16.40;;;11.10;99.90;;;;;;4988191;28;20144;-85
2023/10/24 10:26:27;;;;;;;25.73;16.67;;;11.00;99.90;;;;;;4984040;28;20033;-85
2023/10/24 10:29:07;;;;;;;25.15;18.73;;;11.10;99.90;;;;;;4981163;28;20229;-84
2023/10/24 10:32:03;;;;;;;20.85;17.48;;;11.10;99.90;;;;;;4983365;28;20093;-84
2023/10/24 10:34:38;;;;;;;25.40;17.58;;;11.10;99.90;;;;;;4983877;28;20026;-84
2023/10/24 10:37:04;;;;;;;21.15;18.25;;;11.10;99.90;;;;;;4981912;28;20101;-85
2023/10/24 10:39:30;;;;;;;19.85;16.40;;;11.10;99.90;;;;;;4982889;28;20080;-84
2023/10/24 10:41:56;;;;;;;23.40;18.33;;;11.10;99.90;;;;;;4983694;28;20018;-84
2023/10/24 10:44:36;;;;;;;25.58;17.80;;;11.10;99.90;;;;;;4981330;28;20038;-85
2023/10/24 10:47:04;;;;;;;22.95;19.13;;;11.10;99.90;;;;;;4977561;28;20034;-84
2023/10/24 10:49:51;;;;;;;24.20;19.90;;;11.20;99.90;;;;;;4976450;28;20038;-85
2023/10/24 10:52:41;;;;;;;25.75;20.10;;;11.20;99.90;;;;;;4976567;28;20497;-85
2023/10/24 10:55:26;;;;;;;28.15;20.55;;;11.20;99.90;;;;;;4976897;28;20033;-85
2023/10/24 10:58:28;;;;;;;26.75;21.77;;;11.20;99.90;;;;;;4977090;28;20430;-84
2023/10/24 11:01:01;;;;;;;28.40;21.48;;;11.30;99.90;;;;;;4944310;28;20031;-85
2023/10/24 11:03:39;;;;;;;30.70;23.00;;;11.30;99.90;;;;;;4973100;28;20782;-85
2023/10/24 11:06:16;;;;;;;24.50;21.38;;;11.30;99.90;;;;;;4976090;28;21237;-84
2023/10/24 11:09:01;;;;;;;31.02;21.77;;;11.30;99.90;;;;;;4974882;28;20025;-85
2023/10/24 11:11:27;;;;;;;26.02;22.58;;;11.30;99.90;;;;;;4976295;28;20038;-84
2023/10/24 11:14:11;;;;;;;27.52;21.60;;;11.30;99.90;;;;;;4974347;28;20076;-85
2023/10/24 11:16:37;;;;;;;28.67;21.05;;;11.30;99.90;;;;;;4974692;28;20038;-85
2023/10/24 11:19:03;;;;;;;24.60;20.83;;;11.30;99.90;;;;;;4975677;28;20154;-85
2023/10/24 11:21:29;;;;;;;27.55;21.30;;;11.30;99.90;;;;;;4976752;28;20035;-84
2023/10/24 11:23:58;;;;;;;26.30;21.63;;;11.40;99.90;;;;;;4974192;28;20138;-84
2023/10/24 11:26:24;;;;;;;22.52;20.13;;;11.40;99.90;;;;;;4975371;28;20113;-85
2023/10/24 11:28:51;;;;;;;25.50;21.52;;;11.40;99.90;;;;;;4976840;28;20145;-84
2023/10/24 11:31:23;;;;;;;25.45;20.50;;;11.40;99.90;;;;;;4974552;28;20070;-85
2023/10/24 11:33:48;;;;;;;23.48;19.42;;;11.50;99.90;;;;;;4973393;28;20041;-85
2023/10/24 11:36:15;;;;;;;23.35;19.83;;;11.50;99.90;;;;;;4976103;28;20031;-85
2023/10/24 11:38:41;;;;;;;22.80;20.38;;;11.50;99.90;;;;;;4977752;28;20032;-84
2023/10/24 11:41:06;;;;;;;24.42;21.15;;;11.50;99.90;;;;;;4974883;28;20034;-85
2023/10/24 11:43:32;;;;;;;25.65;21.05;;;11.50;99.90;;;;;;4973539;28;20477;-84
2023/10/24 11:45:58;;;;;;;27.20;21.42;;;11.50;99.90;;;;;;4975466;28;20053;-84
2023/10/24 11:48:24;;;;;;;26.17;21.02;;;11.50;99.90;;;;;;4975422;28;20029;-84
2023/10/24 11:50:50;;;;;;;24.75;21.02;;;11.60;99.90;;;;;;4976090;28;20034;-83
2023/10/24 11:53:23;;;;;;;34.13;22.98;;;11.60;99.90;;;;;;4975144;28;20105;-83
2023/10/24 11:55:49;;;;;;;25.67;21.90;;;11.60;99.90;;;;;;4975143;28;20285;-83
2023/10/24 11:58:16;;;;;;;27.90;21.70;;;11.60;99.90;;;;;;4975172;28;20393;-83
2023/10/24 12:00:44;;;;;;;25.20;22.05;;;11.60;99.90;;;;;;4983758;28;20126;-84
2023/10/24 12:03:10;;;;;;;32.15;24.52;;;11.50;99.90;;;;;;4980880;28;20049;-83
2023/10/24 12:05:36;;;;;;;34.10;25.30;;;11.50;99.90;;;;;;4981580;28;20034;-82
2023/10/24 12:08:03;;;;;;;34.42;23.98;;;11.60;99.90;;;;;;4982397;28;20046;-82
2023/10/24 12:10:31;;;;;;;28.88;24.35;;;11.60;99.90;;;;;;4982727;28;20034;-82
2023/10/24 12:12:57;;;;;;;28.45;23.60;;;11.60;99.90;;;;;;4981670;28;20026;-82
2023/10/24 12:15:25;;;;;;;37.10;24.33;;;11.60;99.90;;;;;;4981588;28;20076;-82
2023/10/24 12:17:50;;;;;;;31.67;24.08;;;11.60;99.90;;;;;;4983463;28;20026;-83
2023/10/24 12:20:16;;;;;;;29.00;24.20;;;11.60;99.90;;;;;;4984272;28;20038;-82
2023/10/24 12:22:46;;;;;;;29.25;22.05;;;11.70;99.90;;;;;;4984454;28;20090;-82
2023/10/24 12:25:17;;;;;;;28.33;22.35;;;11.70;99.90;;;;;;4983968;28;20026;-82
2023/10/24 12:27:43;;;;;;;26.13;21.27;;;11.80;99.90;;;;;;4984432;28;20437;-82
2023/10/24 12:30:11;;;;;;;27.08;22.10;;;11.80;99.90;;;;;;4983665;28;20856;-83
2023/10/24 12:32:36;;;;;;;28.92;24.60;;;11.80;99.90;;;;;;4986692;28;20067;-83
2023/10/24 12:35:06;;;;;;;32.42;24.92;;;11.90;99.90;;;;;;4987911;28;20022;-83
2023/10/24 12:37:32;;;;;;;31.98;25.58;;;11.90;99.90;;;;;;4985004;28;21616;-83
2023/10/24 12:39:57;;;;;;;27.95;23.88;;;12.00;99.90;;;;;;4987675;28;20030;-83
2023/10/24 12:42:23;;;;;;;30.13;23.67;;;12.00;99.90;;;;;;4988199;28;20097;-86